sensor_id;sensor_type;location;lat;lon;timestamp;temperature;humidity
52669;DHT22;59898;52.786;6.892;2023-01-19T00:01:22;2.50;99.90
52669;DHT22;59898;52.786;6.892;2023-01-19T00:04:42;2.50;99.90
52669;DHT22;59898;52.786;6.892;2023-01-19T00:08:03;2.70;99.90
52669;DHT22;59898;52.786;6.892;2023-01-19T00:11:34;2.50;99.90
52669;DHT22;59898;52.786;6.892;2023-01-19T00:14:54;2.50;99.90
52669;DHT22;59898;52.786;6.892;2023-01-19T00:18:15;2.40;99.90
52669;DHT22;59898;52.786;6.892;2023-01-19T00:21:36;2.40;99.90
52669;DHT22;59898;52.786;6.892;2023-01-19T00:24:56;2.90;99.90
52669;DHT22;59898;52.786;6.892;2023-01-19T00:28:18;2.80;99.90
52669;DHT22;59898;52.786;6.892;2023-01-19T00:31:39;2.40;99.90
52669;DHT22;59898;52.786;6.892;2023-01-19T00:34:59;2.40;99.90
52669;DHT22;59898;52.786;6.892;2023-01-19T00:38:20;2.40;99.90
52669;DHT22;59898;52.786;6.892;2023-01-19T00:41:41;2.50;99.90
52669;DHT22;59898;52.786;6.892;2023-01-19T00:45:22;2.20;99.90
52669;DHT22;59898;52.786;6.892;2023-01-19T00:48:43;2.30;99.90
52669;DHT22;59898;52.786;6.892;2023-01-19T00:52:04;2.90;99.90
52669;DHT22;59898;52.786;6.892;2023-01-19T00:55:25;2.20;99.90
52669;DHT22;59898;52.786;6.892;2023-01-19T00:58:48;2.20;99.90
52669;DHT22;59898;52.786;6.892;2023-01-19T01:02:08;2.80;99.90
52669;DHT22;59898;52.786;6.892;2023-01-19T01:05:30;2.20;99.90
52669;DHT22;59898;52.786;6.892;2023-01-19T01:08:51;2.20;99.90
52669;DHT22;59898;52.786;6.892;2023-01-19T01:12:12;2.20;99.90
52669;DHT22;59898;52.786;6.892;2023-01-19T01:15:32;2.20;99.90
52669;DHT22;59898;52.786;6.892;2023-01-19T01:18:54;2.30;99.90
52669;DHT22;59898;52.786;6.892;2023-01-19T01:22:14;2.10;99.90
52669;DHT22;59898;52.786;6.892;2023-01-19T01:25:35;2.20;99.90
52669;DHT22;59898;52.786;6.892;2023-01-19T01:28:58;2.30;99.90
52669;DHT22;59898;52.786;6.892;2023-01-19T01:32:18;2.40;99.90
52669;DHT22;59898;52.786;6.892;2023-01-19T01:35:39;2.20;99.90
52669;DHT22;59898;52.786;6.892;2023-01-19T01:39:00;2.10;99.90
52669;DHT22;59898;52.786;6.892;2023-01-19T01:42:26;2.00;99.90
52669;DHT22;59898;52.786;6.892;2023-01-19T01:45:47;2.10;99.90
52669;DHT22;59898;52.786;6.892;2023-01-19T01:49:13;2.00;99.90
52669;DHT22;59898;52.786;6.892;2023-01-19T01:52:39;2.00;99.90
52669;DHT22;59898;52.786;6.892;2023-01-19T01:56:07;2.00;99.90
52669;DHT22;59898;52.786;6.892;2023-01-19T01:59:33;2.00;99.90
52669;DHT22;59898;52.786;6.892;2023-01-19T02:02:58;2.00;99.90
52669;DHT22;59898;52.786;6.892;2023-01-19T02:06:19;2.00;99.90
52669;DHT22;59898;52.786;6.892;2023-01-19T02:09:41;2.90;99.90
52669;DHT22;59898;52.786;6.892;2023-01-19T02:13:21;2.00;99.90
52669;DHT22;59898;52.786;6.892;2023-01-19T02:16:42;2.00;99.90
52669;DHT22;59898;52.786;6.892;2023-01-19T02:20:03;2.10;99.90
52669;DHT22;59898;52.786;6.892;2023-01-19T02:27:11;2.40;99.90
52669;DHT22;59898;52.786;6.892;2023-01-19T02:30:33;2.10;99.90
52669;DHT22;59898;52.786;6.892;2023-01-19T02:33:55;2.30;99.90
52669;DHT22;59898;52.786;6.892;2023-01-19T02:37:17;2.10;99.90
52669;DHT22;59898;52.786;6.892;2023-01-19T02:40:39;2.10;99.90
52669;DHT22;59898;52.786;6.892;2023-01-19T02:44:01;2.10;99.90
52669;DHT22;59898;52.786;6.892;2023-01-19T02:47:23;2.00;99.90
52669;DHT22;59898;52.786;6.892;2023-01-19T02:50:45;2.20;99.90
52669;DHT22;59898;52.786;6.892;2023-01-19T02:54:27;2.10;99.90
52669;DHT22;59898;52.786;6.892;2023-01-19T02:58:08;2.10;99.90
52669;DHT22;59898;52.786;6.892;2023-01-19T03:05:49;2.10;99.90
52669;DHT22;59898;52.786;6.892;2023-01-19T03:09:34;2.20;99.90
52669;DHT22;59898;52.786;6.892;2023-01-19T03:16:49;2.20;99.90
52669;DHT22;59898;52.786;6.892;2023-01-19T03:20:15;2.20;99.90
52669;DHT22;59898;52.786;6.892;2023-01-19T03:23:40;2.20;99.90
52669;DHT22;59898;52.786;6.892;2023-01-19T03:27:02;2.20;99.90
52669;DHT22;59898;52.786;6.892;2023-01-19T03:30:27;2.20;99.90
52669;DHT22;59898;52.786;6.892;2023-01-19T03:33:53;2.20;99.90
52669;DHT22;59898;52.786;6.892;2023-01-19T03:37:16;2.20;99.90
52669;DHT22;59898;52.786;6.892;2023-01-19T03:40:39;2.60;99.90
52669;DHT22;59898;52.786;6.892;2023-01-19T03:44:02;2.20;99.90
52669;DHT22;59898;52.786;6.892;2023-01-19T03:47:25;2.30;99.90
52669;DHT22;59898;52.786;6.892;2023-01-19T03:50:45;2.20;99.90
52669;DHT22;59898;52.786;6.892;2023-01-19T03:54:09;2.30;99.90
52669;DHT22;59898;52.786;6.892;2023-01-19T03:57:30;2.20;99.90
52669;DHT22;59898;52.786;6.892;2023-01-19T04:00:51;2.20;99.90
52669;DHT22;59898;52.786;6.892;2023-01-19T04:04:12;2.50;99.90
52669;DHT22;59898;52.786;6.892;2023-01-19T04:07:32;2.80;99.90
52669;DHT22;59898;52.786;6.892;2023-01-19T04:10:53;2.20;99.90
52669;DHT22;59898;52.786;6.892;2023-01-19T04:14:14;2.30;99.90
52669;DHT22;59898;52.786;6.892;2023-01-19T04:17:34;2.30;99.90
52669;DHT22;59898;52.786;6.892;2023-01-19T04:20:59;2.10;99.90
52669;DHT22;59898;52.786;6.892;2023-01-19T04:24:20;2.20;99.90
52669;DHT22;59898;52.786;6.892;2023-01-19T04:27:41;2.20;99.90
52669;DHT22;59898;52.786;6.892;2023-01-19T04:31:03;2.20;99.90
52669;DHT22;59898;52.786;6.892;2023-01-19T04:34:23;2.10;99.90
52669;DHT22;59898;52.786;6.892;2023-01-19T04:37:44;2.10;99.90
52669;DHT22;59898;52.786;6.892;2023-01-19T04:41:05;2.40;99.90
52669;DHT22;59898;52.786;6.892;2023-01-19T04:44:27;1.90;99.90
52669;DHT22;59898;52.786;6.892;2023-01-19T04:47:49;2.10;99.90
52669;DHT22;59898;52.786;6.892;2023-01-19T04:51:09;3.00;99.90
52669;DHT22;59898;52.786;6.892;2023-01-19T04:54:30;2.10;99.90
52669;DHT22;59898;52.786;6.892;2023-01-19T04:57:51;2.10;99.90
52669;DHT22;59898;52.786;6.892;2023-01-19T05:01:11;1.90;99.90
52669;DHT22;59898;52.786;6.892;2023-01-19T05:04:32;2.10;99.90
52669;DHT22;59898;52.786;6.892;2023-01-19T05:07:53;2.20;99.90
52669;DHT22;59898;52.786;6.892;2023-01-19T05:11:14;2.10;99.90
52669;DHT22;59898;52.786;6.892;2023-01-19T05:14:34;2.10;99.90
52669;DHT22;59898;52.786;6.892;2023-01-19T05:17:55;2.10;99.90
52669;DHT22;59898;52.786;6.892;2023-01-19T05:21:17;2.10;99.90
52669;DHT22;59898;52.786;6.892;2023-01-19T05:24:38;2.20;99.90
52669;DHT22;59898;52.786;6.892;2023-01-19T05:27:58;2.20;99.90
52669;DHT22;59898;52.786;6.892;2023-01-19T05:31:19;2.20;99.90
52669;DHT22;59898;52.786;6.892;2023-01-19T05:34:40;2.20;99.90
52669;DHT22;59898;52.786;6.892;2023-01-19T05:38:00;2.20;99.90
52669;DHT22;59898;52.786;6.892;2023-01-19T05:41:21;2.20;99.90
52669;DHT22;59898;52.786;6.892;2023-01-19T05:44:42;2.40;99.90
52669;DHT22;59898;52.786;6.892;2023-01-19T05:48:03;2.30;99.90
52669;DHT22;59898;52.786;6.892;2023-01-19T05:51:23;2.30;99.90
52669;DHT22;59898;52.786;6.892;2023-01-19T05:54:44;2.30;99.90
52669;DHT22;59898;52.786;6.892;2023-01-19T05:58:05;2.40;99.90
52669;DHT22;59898;52.786;6.892;2023-01-19T06:01:26;2.30;99.90
52669;DHT22;59898;52.786;6.892;2023-01-19T06:04:47;2.30;99.90
52669;DHT22;59898;52.786;6.892;2023-01-19T06:08:07;2.30;99.90
52669;DHT22;59898;52.786;6.892;2023-01-19T06:11:28;2.30;99.90
52669;DHT22;59898;52.786;6.892;2023-01-19T06:14:49;2.30;99.90
52669;DHT22;59898;52.786;6.892;2023-01-19T06:18:10;2.40;99.90
52669;DHT22;59898;52.786;6.892;2023-01-19T06:21:33;3.00;99.90
52669;DHT22;59898;52.786;6.892;2023-01-19T06:24:53;2.40;99.90
52669;DHT22;59898;52.786;6.892;2023-01-19T06:28:14;2.40;99.90
52669;DHT22;59898;52.786;6.892;2023-01-19T06:31:35;2.70;99.90
52669;DHT22;59898;52.786;6.892;2023-01-19T06:34:55;2.50;99.90
52669;DHT22;59898;52.786;6.892;2023-01-19T06:38:16;2.50;99.90
52669;DHT22;59898;52.786;6.892;2023-01-19T06:41:38;2.50;99.90
52669;DHT22;59898;52.786;6.892;2023-01-19T06:44:59;2.50;99.90
52669;DHT22;59898;52.786;6.892;2023-01-19T06:48:20;2.50;99.90
52669;DHT22;59898;52.786;6.892;2023-01-19T06:51:40;2.50;99.90
52669;DHT22;59898;52.786;6.892;2023-01-19T06:55:01;2.60;99.90
52669;DHT22;59898;52.786;6.892;2023-01-19T06:58:22;2.60;99.90
52669;DHT22;59898;52.786;6.892;2023-01-19T07:01:42;3.00;99.90
52669;DHT22;59898;52.786;6.892;2023-01-19T07:05:03;2.60;99.90
52669;DHT22;59898;52.786;6.892;2023-01-19T07:08:26;2.60;99.90
52669;DHT22;59898;52.786;6.892;2023-01-19T07:11:47;2.60;99.90
52669;DHT22;59898;52.786;6.892;2023-01-19T07:15:08;2.70;99.90
52669;DHT22;59898;52.786;6.892;2023-01-19T07:18:31;2.70;99.90
52669;DHT22;59898;52.786;6.892;2023-01-19T07:21:52;2.70;99.90
52669;DHT22;59898;52.786;6.892;2023-01-19T07:25:13;2.90;99.90
52669;DHT22;59898;52.786;6.892;2023-01-19T07:28:34;3.00;99.90
52669;DHT22;59898;52.786;6.892;2023-01-19T07:31:56;2.80;99.90
52669;DHT22;59898;52.786;6.892;2023-01-19T07:35:17;2.80;99.90
52669;DHT22;59898;52.786;6.892;2023-01-19T07:38:37;2.80;99.90
52669;DHT22;59898;52.786;6.892;2023-01-19T07:41:58;2.90;99.90
52669;DHT22;59898;52.786;6.892;2023-01-19T07:45:20;2.80;99.90
52669;DHT22;59898;52.786;6.892;2023-01-19T07:48:40;2.80;99.90
52669;DHT22;59898;52.786;6.892;2023-01-19T07:52:03;3.00;99.90
52669;DHT22;59898;52.786;6.892;2023-01-19T07:55:24;2.80;99.90
52669;DHT22;59898;52.786;6.892;2023-01-19T07:58:45;2.80;99.90
52669;DHT22;59898;52.786;6.892;2023-01-19T08:02:09;2.90;99.90
52669;DHT22;59898;52.786;6.892;2023-01-19T08:05:31;2.90;99.90
52669;DHT22;59898;52.786;6.892;2023-01-19T08:08:52;3.00;99.90
52669;DHT22;59898;52.786;6.892;2023-01-19T08:12:13;3.10;99.90
52669;DHT22;59898;52.786;6.892;2023-01-19T08:15:34;3.00;99.90
52669;DHT22;59898;52.786;6.892;2023-01-19T08:18:54;3.10;99.90
52669;DHT22;59898;52.786;6.892;2023-01-19T08:22:15;3.10;99.90
52669;DHT22;59898;52.786;6.892;2023-01-19T08:25:40;3.20;99.90
52669;DHT22;59898;52.786;6.892;2023-01-19T08:29:03;3.20;99.90
52669;DHT22;59898;52.786;6.892;2023-01-19T08:32:24;3.20;99.90
52669;DHT22;59898;52.786;6.892;2023-01-19T08:35:48;3.30;99.90
52669;DHT22;59898;52.786;6.892;2023-01-19T08:39:10;3.20;99.90
52669;DHT22;59898;52.786;6.892;2023-01-19T08:42:31;3.10;99.90
52669;DHT22;59898;52.786;6.892;2023-01-19T08:45:52;3.00;99.90
52669;DHT22;59898;52.786;6.892;2023-01-19T08:49:13;3.20;99.90
52669;DHT22;59898;52.786;6.892;2023-01-19T08:52:33;3.20;99.90
52669;DHT22;59898;52.786;6.892;2023-01-19T08:55:56;3.40;99.90
52669;DHT22;59898;52.786;6.892;2023-01-19T08:59:17;3.20;99.90
52669;DHT22;59898;52.786;6.892;2023-01-19T09:02:37;3.50;99.90
52669;DHT22;59898;52.786;6.892;2023-01-19T09:05:58;3.20;99.90
52669;DHT22;59898;52.786;6.892;2023-01-19T09:09:19;3.30;99.90
52669;DHT22;59898;52.786;6.892;2023-01-19T09:12:40;3.30;99.90
52669;DHT22;59898;52.786;6.892;2023-01-19T09:16:01;3.40;99.90
52669;DHT22;59898;52.786;6.892;2023-01-19T09:19:23;3.70;99.90
52669;DHT22;59898;52.786;6.892;2023-01-19T09:22:43;4.60;99.90
52669;DHT22;59898;52.786;6.892;2023-01-19T09:26:05;5.20;99.90
52669;DHT22;59898;52.786;6.892;2023-01-19T09:29:25;5.80;99.90
52669;DHT22;59898;52.786;6.892;2023-01-19T09:32:46;6.40;99.90
52669;DHT22;59898;52.786;6.892;2023-01-19T09:36:07;7.00;99.90
52669;DHT22;59898;52.786;6.892;2023-01-19T09:39:27;7.30;99.90
52669;DHT22;59898;52.786;6.892;2023-01-19T09:42:56;7.30;99.90
52669;DHT22;59898;52.786;6.892;2023-01-19T09:46:40;7.20;99.90
52669;DHT22;59898;52.786;6.892;2023-01-19T09:50:18;7.00;99.90
52669;DHT22;59898;52.786;6.892;2023-01-19T09:57:11;6.10;99.90
52669;DHT22;59898;52.786;6.892;2023-01-19T10:00:32;5.90;99.90
52669;DHT22;59898;52.786;6.892;2023-01-19T10:07:52;7.20;99.90
52669;DHT22;59898;52.786;6.892;2023-01-19T10:11:36;7.60;99.90
52669;DHT22;59898;52.786;6.892;2023-01-19T10:15:24;7.60;99.90
52669;DHT22;59898;52.786;6.892;2023-01-19T10:18:48;8.20;99.90
52669;DHT22;59898;52.786;6.892;2023-01-19T10:22:21;8.80;99.90
52669;DHT22;59898;52.786;6.892;2023-01-19T10:25:42;9.40;99.90
52669;DHT22;59898;52.786;6.892;2023-01-19T10:29:41;10.70;99.90
52669;DHT22;59898;52.786;6.892;2023-01-19T10:32:58;11.70;99.90
52669;DHT22;59898;52.786;6.892;2023-01-19T10:36:19;12.80;99.90
52669;DHT22;59898;52.786;6.892;2023-01-19T10:39:41;13.20;99.90
52669;DHT22;59898;52.786;6.892;2023-01-19T10:46:53;13.90;99.90
52669;DHT22;59898;52.786;6.892;2023-01-19T10:50:35;13.80;99.90
52669;DHT22;59898;52.786;6.892;2023-01-19T10:54:01;13.60;99.90
52669;DHT22;59898;52.786;6.892;2023-01-19T10:57:31;13.60;99.90
52669;DHT22;59898;52.786;6.892;2023-01-19T11:00:53;13.40;99.90
52669;DHT22;59898;52.786;6.892;2023-01-19T11:04:27;13.30;99.90
52669;DHT22;59898;52.786;6.892;2023-01-19T11:07:48;13.10;99.90
52669;DHT22;59898;52.786;6.892;2023-01-19T11:11:09;12.80;99.90
52669;DHT22;59898;52.786;6.892;2023-01-19T11:14:31;12.50;99.90
52669;DHT22;59898;52.786;6.892;2023-01-19T11:17:52;12.20;99.90
52669;DHT22;59898;52.786;6.892;2023-01-19T11:21:15;11.60;99.90
52669;DHT22;59898;52.786;6.892;2023-01-19T11:24:37;11.00;99.90
52669;DHT22;59898;52.786;6.892;2023-01-19T11:27:58;10.60;99.90
52669;DHT22;59898;52.786;6.892;2023-01-19T11:34:52;10.10;99.90
52669;DHT22;59898;52.786;6.892;2023-01-19T11:38:17;10.00;99.90
52669;DHT22;59898;52.786;6.892;2023-01-19T11:41:38;9.80;99.90
52669;DHT22;59898;52.786;6.892;2023-01-19T11:45:19;9.70;99.90
52669;DHT22;59898;52.786;6.892;2023-01-19T11:49:04;9.70;99.90
52669;DHT22;59898;52.786;6.892;2023-01-19T11:52:40;9.50;99.90
52669;DHT22;59898;52.786;6.892;2023-01-19T11:56:13;9.40;99.90
52669;DHT22;59898;52.786;6.892;2023-01-19T11:59:34;9.20;99.90
52669;DHT22;59898;52.786;6.892;2023-01-19T12:03:04;9.00;99.90
52669;DHT22;59898;52.786;6.892;2023-01-19T12:06:34;8.70;99.90
52669;DHT22;59898;52.786;6.892;2023-01-19T12:13:44;8.40;99.90
52669;DHT22;59898;52.786;6.892;2023-01-19T12:17:06;8.30;99.90
52669;DHT22;59898;52.786;6.892;2023-01-19T12:24:23;8.30;99.90
52669;DHT22;59898;52.786;6.892;2023-01-19T12:27:48;8.30;99.90
52669;DHT22;59898;52.786;6.892;2023-01-19T12:31:09;8.40;99.90
52669;DHT22;59898;52.786;6.892;2023-01-19T12:34:44;8.40;99.90
52669;DHT22;59898;52.786;6.892;2023-01-19T12:38:40;8.60;99.90
52669;DHT22;59898;52.786;6.892;2023-01-19T12:42:14;8.70;99.90
52669;DHT22;59898;52.786;6.892;2023-01-19T12:45:36;8.70;99.90
52669;DHT22;59898;52.786;6.892;2023-01-19T12:52:53;8.40;99.90
52669;DHT22;59898;52.786;6.892;2023-01-19T12:56:17;8.00;99.90
52669;DHT22;59898;52.786;6.892;2023-01-19T12:59:38;7.70;99.90
52669;DHT22;59898;52.786;6.892;2023-01-19T13:03:43;7.50;99.90
52669;DHT22;59898;52.786;6.892;2023-01-19T13:14:35;6.90;99.90
52669;DHT22;59898;52.786;6.892;2023-01-19T13:17:56;6.90;99.90
52669;DHT22;59898;52.786;6.892;2023-01-19T13:25:06;6.80;99.90
52669;DHT22;59898;52.786;6.892;2023-01-19T13:28:34;6.60;99.90
52669;DHT22;59898;52.786;6.892;2023-01-19T13:31:59;6.40;99.90
52669;DHT22;59898;52.786;6.892;2023-01-19T13:35:22;6.30;99.90
52669;DHT22;59898;52.786;6.892;2023-01-19T13:38:43;6.30;99.90
52669;DHT22;59898;52.786;6.892;2023-01-19T13:42:14;6.20;99.90
52669;DHT22;59898;52.786;6.892;2023-01-19T13:45:36;6.20;99.90
52669;DHT22;59898;52.786;6.892;2023-01-19T13:49:03;6.50;99.90
52669;DHT22;59898;52.786;6.892;2023-01-19T13:52:27;6.10;99.90
52669;DHT22;59898;52.786;6.892;2023-01-19T13:55:49;6.10;99.90
52669;DHT22;59898;52.786;6.892;2023-01-19T13:59:24;6.10;99.90
52669;DHT22;59898;52.786;6.892;2023-01-19T14:03:15;6.00;99.90
52669;DHT22;59898;52.786;6.892;2023-01-19T14:06:39;6.00;99.90
52669;DHT22;59898;52.786;6.892;2023-01-19T14:10:03;5.90;99.90
52669;DHT22;59898;52.786;6.892;2023-01-19T14:13:30;5.90;99.90
52669;DHT22;59898;52.786;6.892;2023-01-19T14:16:52;5.90;99.90
52669;DHT22;59898;52.786;6.892;2023-01-19T14:20:30;5.80;99.90
52669;DHT22;59898;52.786;6.892;2023-01-19T14:24:15;5.80;99.90
52669;DHT22;59898;52.786;6.892;2023-01-19T14:27:36;5.70;99.90
52669;DHT22;59898;52.786;6.892;2023-01-19T14:30:59;5.70;99.90
52669;DHT22;59898;52.786;6.892;2023-01-19T14:34:37;5.60;99.90
52669;DHT22;59898;52.786;6.892;2023-01-19T14:37:58;5.50;99.90
52669;DHT22;59898;52.786;6.892;2023-01-19T14:41:45;5.50;99.90
52669;DHT22;59898;52.786;6.892;2023-01-19T14:45:16;5.40;99.90
52669;DHT22;59898;52.786;6.892;2023-01-19T14:48:37;5.40;99.90
52669;DHT22;59898;52.786;6.892;2023-01-19T14:51:59;5.40;99.90
52669;DHT22;59898;52.786;6.892;2023-01-19T14:59:11;5.40;99.90
52669;DHT22;59898;52.786;6.892;2023-01-19T15:02:32;5.40;99.90
52669;DHT22;59898;52.786;6.892;2023-01-19T15:05:54;5.40;99.90
52669;DHT22;59898;52.786;6.892;2023-01-19T15:09:15;5.40;99.90
52669;DHT22;59898;52.786;6.892;2023-01-19T15:12:36;5.40;99.90
52669;DHT22;59898;52.786;6.892;2023-01-19T15:15:57;5.40;99.90
52669;DHT22;59898;52.786;6.892;2023-01-19T15:19:18;5.40;99.90
52669;DHT22;59898;52.786;6.892;2023-01-19T15:22:39;5.30;99.90
52669;DHT22;59898;52.786;6.892;2023-01-19T15:26:01;5.50;99.90
52669;DHT22;59898;52.786;6.892;2023-01-19T15:29:23;5.10;99.90
52669;DHT22;59898;52.786;6.892;2023-01-19T15:32:44;5.10;99.90
52669;DHT22;59898;52.786;6.892;2023-01-19T15:36:05;5.00;99.90
52669;DHT22;59898;52.786;6.892;2023-01-19T15:39:26;5.00;99.90
52669;DHT22;59898;52.786;6.892;2023-01-19T15:42:47;4.90;99.90
52669;DHT22;59898;52.786;6.892;2023-01-19T15:46:10;4.90;99.90
52669;DHT22;59898;52.786;6.892;2023-01-19T15:49:32;4.80;99.90
52669;DHT22;59898;52.786;6.892;2023-01-19T15:52:53;4.80;99.90
52669;DHT22;59898;52.786;6.892;2023-01-19T15:56:16;4.80;99.90
52669;DHT22;59898;52.786;6.892;2023-01-19T15:59:36;4.70;99.90
52669;DHT22;59898;52.786;6.892;2023-01-19T16:02:57;4.70;99.90
52669;DHT22;59898;52.786;6.892;2023-01-19T16:06:18;4.60;99.90
52669;DHT22;59898;52.786;6.892;2023-01-19T16:09:39;4.60;99.90
52669;DHT22;59898;52.786;6.892;2023-01-19T16:13:00;4.50;99.90
52669;DHT22;59898;52.786;6.892;2023-01-19T16:16:22;4.90;99.90
52669;DHT22;59898;52.786;6.892;2023-01-19T16:19:43;4.60;99.90
52669;DHT22;59898;52.786;6.892;2023-01-19T16:23:04;4.50;99.90
52669;DHT22;59898;52.786;6.892;2023-01-19T16:26:30;4.50;99.90
52669;DHT22;59898;52.786;6.892;2023-01-19T16:29:53;4.50;99.90
52669;DHT22;59898;52.786;6.892;2023-01-19T16:33:14;4.40;99.90
52669;DHT22;59898;52.786;6.892;2023-01-19T16:36:36;4.30;99.90
52669;DHT22;59898;52.786;6.892;2023-01-19T16:39:57;4.10;99.90
52669;DHT22;59898;52.786;6.892;2023-01-19T16:43:18;4.10;99.90
52669;DHT22;59898;52.786;6.892;2023-01-19T16:46:41;4.10;99.90
52669;DHT22;59898;52.786;6.892;2023-01-19T16:50:02;4.30;99.90
52669;DHT22;59898;52.786;6.892;2023-01-19T16:53:22;4.10;99.90
52669;DHT22;59898;52.786;6.892;2023-01-19T16:56:43;4.10;99.90
52669;DHT22;59898;52.786;6.892;2023-01-19T17:00:05;4.20;99.90
52669;DHT22;59898;52.786;6.892;2023-01-19T17:03:27;4.20;99.90
52669;DHT22;59898;52.786;6.892;2023-01-19T17:06:47;4.20;99.90
52669;DHT22;59898;52.786;6.892;2023-01-19T17:10:09;4.20;99.90
52669;DHT22;59898;52.786;6.892;2023-01-19T17:13:30;4.20;99.90
52669;DHT22;59898;52.786;6.892;2023-01-19T17:16:51;4.60;99.90
52669;DHT22;59898;52.786;6.892;2023-01-19T17:20:12;4.50;99.90
52669;DHT22;59898;52.786;6.892;2023-01-19T17:23:33;4.20;99.90
52669;DHT22;59898;52.786;6.892;2023-01-19T17:26:54;4.20;99.90
52669;DHT22;59898;52.786;6.892;2023-01-19T17:30:15;4.10;99.90
52669;DHT22;59898;52.786;6.892;2023-01-19T17:33:36;4.10;99.90
52669;DHT22;59898;52.786;6.892;2023-01-19T17:36:57;4.20;99.90
52669;DHT22;59898;52.786;6.892;2023-01-19T17:40:22;4.10;99.90
52669;DHT22;59898;52.786;6.892;2023-01-19T17:43:46;4.00;99.90
52669;DHT22;59898;52.786;6.892;2023-01-19T17:47:07;3.90;99.90
52669;DHT22;59898;52.786;6.892;2023-01-19T17:50:28;3.80;99.90
52669;DHT22;59898;52.786;6.892;2023-01-19T17:53:49;4.20;99.90
52669;DHT22;59898;52.786;6.892;2023-01-19T17:57:10;3.80;99.90
52669;DHT22;59898;52.786;6.892;2023-01-19T18:00:31;3.80;99.90
52669;DHT22;59898;52.786;6.892;2023-01-19T18:03:52;3.80;99.90
52669;DHT22;59898;52.786;6.892;2023-01-19T18:07:13;3.70;99.90
52669;DHT22;59898;52.786;6.892;2023-01-19T18:10:33;3.70;99.90
52669;DHT22;59898;52.786;6.892;2023-01-19T18:13:54;3.80;99.90
52669;DHT22;59898;52.786;6.892;2023-01-19T18:17:16;3.70;99.90
52669;DHT22;59898;52.786;6.892;2023-01-19T18:20:36;4.00;99.90
52669;DHT22;59898;52.786;6.892;2023-01-19T18:24:01;3.60;99.90
52669;DHT22;59898;52.786;6.892;2023-01-19T18:27:22;3.50;99.90
52669;DHT22;59898;52.786;6.892;2023-01-19T18:30:42;3.60;99.90
52669;DHT22;59898;52.786;6.892;2023-01-19T18:34:03;3.70;99.90
52669;DHT22;59898;52.786;6.892;2023-01-19T18:37:24;3.50;99.90
52669;DHT22;59898;52.786;6.892;2023-01-19T18:40:45;3.40;99.90
52669;DHT22;59898;52.786;6.892;2023-01-19T18:44:07;3.30;99.90
52669;DHT22;59898;52.786;6.892;2023-01-19T18:47:28;3.20;99.90
52669;DHT22;59898;52.786;6.892;2023-01-19T18:50:49;3.30;99.90
52669;DHT22;59898;52.786;6.892;2023-01-19T18:54:10;3.00;99.90
52669;DHT22;59898;52.786;6.892;2023-01-19T18:57:30;2.90;99.90
52669;DHT22;59898;52.786;6.892;2023-01-19T19:00:53;2.90;99.90
52669;DHT22;59898;52.786;6.892;2023-01-19T19:04:14;2.80;99.90
52669;DHT22;59898;52.786;6.892;2023-01-19T19:07:35;2.80;99.90
52669;DHT22;59898;52.786;6.892;2023-01-19T19:10:57;4.10;99.90
52669;DHT22;59898;52.786;6.892;2023-01-19T19:14:17;2.60;99.90
52669;DHT22;59898;52.786;6.892;2023-01-19T19:17:38;2.60;99.90
52669;DHT22;59898;52.786;6.892;2023-01-19T19:21:08;2.50;99.90
52669;DHT22;59898;52.786;6.892;2023-01-19T19:24:29;2.50;99.90
52669;DHT22;59898;52.786;6.892;2023-01-19T19:27:51;2.50;99.90
52669;DHT22;59898;52.786;6.892;2023-01-19T19:31:14;2.40;99.90
52669;DHT22;59898;52.786;6.892;2023-01-19T19:34:36;2.50;99.90
52669;DHT22;59898;52.786;6.892;2023-01-19T19:37:56;2.70;99.90
52669;DHT22;59898;52.786;6.892;2023-01-19T19:41:22;2.50;99.90
52669;DHT22;59898;52.786;6.892;2023-01-19T19:44:43;2.50;99.90
52669;DHT22;59898;52.786;6.892;2023-01-19T19:48:04;2.50;99.90
52669;DHT22;59898;52.786;6.892;2023-01-19T19:51:26;2.50;99.90
52669;DHT22;59898;52.786;6.892;2023-01-19T19:54:47;2.50;99.90
52669;DHT22;59898;52.786;6.892;2023-01-19T19:58:08;2.70;99.90
52669;DHT22;59898;52.786;6.892;2023-01-19T20:01:29;2.50;99.90
52669;DHT22;59898;52.786;6.892;2023-01-19T20:04:51;2.40;99.90
52669;DHT22;59898;52.786;6.892;2023-01-19T20:08:12;2.70;99.90
52669;DHT22;59898;52.786;6.892;2023-01-19T20:11:34;2.50;99.90
52669;DHT22;59898;52.786;6.892;2023-01-19T20:14:55;2.60;99.90
52669;DHT22;59898;52.786;6.892;2023-01-19T20:18:15;2.60;99.90
52669;DHT22;59898;52.786;6.892;2023-01-19T20:21:38;2.60;99.90
52669;DHT22;59898;52.786;6.892;2023-01-19T20:25:01;2.60;99.90
52669;DHT22;59898;52.786;6.892;2023-01-19T20:28:21;2.40;99.90
52669;DHT22;59898;52.786;6.892;2023-01-19T20:31:54;2.40;99.90
52669;DHT22;59898;52.786;6.892;2023-01-19T20:35:14;2.20;99.90
52669;DHT22;59898;52.786;6.892;2023-01-19T20:38:36;2.20;99.90
52669;DHT22;59898;52.786;6.892;2023-01-19T20:41:57;2.20;99.90
52669;DHT22;59898;52.786;6.892;2023-01-19T20:45:17;2.30;99.90
52669;DHT22;59898;52.786;6.892;2023-01-19T20:48:39;2.50;99.90
52669;DHT22;59898;52.786;6.892;2023-01-19T20:52:01;2.30;99.90
52669;DHT22;59898;52.786;6.892;2023-01-19T20:55:21;2.20;99.90
52669;DHT22;59898;52.786;6.892;2023-01-19T20:58:42;2.10;99.90
52669;DHT22;59898;52.786;6.892;2023-01-19T21:02:03;2.20;99.90
52669;DHT22;59898;52.786;6.892;2023-01-19T21:05:27;2.70;99.90
52669;DHT22;59898;52.786;6.892;2023-01-19T21:08:48;2.20;99.90
52669;DHT22;59898;52.786;6.892;2023-01-19T21:12:11;2.20;99.90
52669;DHT22;59898;52.786;6.892;2023-01-19T21:15:32;2.20;99.90
52669;DHT22;59898;52.786;6.892;2023-01-19T21:18:53;2.20;99.90
52669;DHT22;59898;52.786;6.892;2023-01-19T21:22:14;2.20;99.90
52669;DHT22;59898;52.786;6.892;2023-01-19T21:25:35;2.20;99.90
52669;DHT22;59898;52.786;6.892;2023-01-19T21:28:58;2.20;99.90
52669;DHT22;59898;52.786;6.892;2023-01-19T21:32:18;2.20;99.90
52669;DHT22;59898;52.786;6.892;2023-01-19T21:35:39;2.40;99.90
52669;DHT22;59898;52.786;6.892;2023-01-19T21:39:08;2.10;99.90
52669;DHT22;59898;52.786;6.892;2023-01-19T21:42:29;2.10;99.90
52669;DHT22;59898;52.786;6.892;2023-01-19T21:45:50;2.10;99.90
52669;DHT22;59898;52.786;6.892;2023-01-19T21:49:16;2.00;99.90
52669;DHT22;59898;52.786;6.892;2023-01-19T21:52:37;2.00;99.90
52669;DHT22;59898;52.786;6.892;2023-01-19T21:55:59;1.80;99.90
52669;DHT22;59898;52.786;6.892;2023-01-19T21:59:20;1.90;99.90
52669;DHT22;59898;52.786;6.892;2023-01-19T22:02:40;1.60;99.90
52669;DHT22;59898;52.786;6.892;2023-01-19T22:06:03;1.70;99.90
52669;DHT22;59898;52.786;6.892;2023-01-19T22:09:24;1.70;99.90
52669;DHT22;59898;52.786;6.892;2023-01-19T22:12:45;1.60;99.90
52669;DHT22;59898;52.786;6.892;2023-01-19T22:16:08;1.50;99.90
52669;DHT22;59898;52.786;6.892;2023-01-19T22:19:30;1.50;99.90
52669;DHT22;59898;52.786;6.892;2023-01-19T22:22:50;1.50;99.90
52669;DHT22;59898;52.786;6.892;2023-01-19T22:26:11;1.40;99.90
52669;DHT22;59898;52.786;6.892;2023-01-19T22:29:32;1.30;99.90
52669;DHT22;59898;52.786;6.892;2023-01-19T22:32:52;1.30;99.90
52669;DHT22;59898;52.786;6.892;2023-01-19T22:36:14;1.20;99.90